sensor_id;sensor_type;location;lat;lon;timestamp;P1;durP1;ratioP1;P2;durP2;ratioP2
13240;SDS011;6687;47.790;7.322;2023-05-20T05:24:32;1.80;;;1.00;;
13240;SDS011;6687;47.790;7.322;2023-05-20T05:26:59;0.57;;;0.57;;
13240;SDS011;6687;47.790;7.322;2023-05-20T05:29:26;0.80;;;0.63;;
13240;SDS011;6687;47.790;7.322;2023-05-20T05:31:53;0.38;;;0.38;;
13240;SDS011;6687;47.790;7.322;2023-05-20T05:34:19;0.60;;;0.43;;
13240;SDS011;6687;47.790;7.322;2023-05-20T05:36:46;0.60;;;0.60;;
13240;SDS011;6687;47.790;7.322;2023-05-20T05:39:13;1.00;;;0.90;;
13240;SDS011;6687;47.790;7.322;2023-05-20T05:41:41;0.77;;;0.77;;
13240;SDS011;6687;47.790;7.322;2023-05-20T05:44:07;0.80;;;0.80;;
13240;SDS011;6687;47.790;7.322;2023-05-20T05:46:34;0.55;;;0.55;;
13240;SDS011;6687;47.790;7.322;2023-05-20T05:49:01;0.60;;;0.60;;
13240;SDS011;6687;47.790;7.322;2023-05-20T05:51:27;1.08;;;0.73;;
13240;SDS011;6687;47.790;7.322;2023-05-20T05:53:55;0.90;;;0.73;;
13240;SDS011;6687;47.790;7.322;2023-05-20T05:56:21;1.02;;;0.93;;
13240;SDS011;6687;47.790;7.322;2023-05-20T05:58:49;0.40;;;0.40;;
13240;SDS011;6687;47.790;7.322;2023-05-20T06:01:16;0.82;;;0.82;;
13240;SDS011;6687;47.790;7.322;2023-05-20T06:03:43;0.52;;;0.52;;
13240;SDS011;6687;47.790;7.322;2023-05-20T06:06:09;0.40;;;0.40;;
13240;SDS011;6687;47.790;7.322;2023-05-20T06:08:36;0.85;;;0.82;;
13240;SDS011;6687;47.790;7.322;2023-05-20T06:11:03;0.80;;;0.80;;
13240;SDS011;6687;47.790;7.322;2023-05-20T06:13:30;1.15;;;0.63;;
13240;SDS011;6687;47.790;7.322;2023-05-20T06:15:58;0.65;;;0.65;;
13240;SDS011;6687;47.790;7.322;2023-05-20T06:18:24;1.10;;;1.00;;
13240;SDS011;6687;47.790;7.322;2023-05-20T06:20:54;0.65;;;0.65;;
13240;SDS011;6687;47.790;7.322;2023-05-20T06:23:21;0.70;;;0.70;;
13240;SDS011;6687;47.790;7.322;2023-05-20T06:25:48;1.10;;;1.00;;
13240;SDS011;6687;47.790;7.322;2023-05-20T06:28:15;1.13;;;0.82;;
13240;SDS011;6687;47.790;7.322;2023-05-20T06:30:41;1.67;;;0.60;;
13240;SDS011;6687;47.790;7.322;2023-05-20T06:33:10;1.05;;;0.80;;
13240;SDS011;6687;47.790;7.322;2023-05-20T06:35:36;0.75;;;0.52;;
13240;SDS011;6687;47.790;7.322;2023-05-20T06:38:03;0.60;;;0.60;;
13240;SDS011;6687;47.790;7.322;2023-05-20T06:40:30;0.75;;;0.75;;
13240;SDS011;6687;47.790;7.322;2023-05-20T06:42:56;0.55;;;0.55;;
13240;SDS011;6687;47.790;7.322;2023-05-20T06:45:23;0.65;;;0.65;;
13240;SDS011;6687;47.790;7.322;2023-05-20T06:47:50;0.70;;;0.70;;
13240;SDS011;6687;47.790;7.322;2023-05-20T06:50:19;0.88;;;0.88;;
13240;SDS011;6687;47.790;7.322;2023-05-20T06:52:46;0.75;;;0.50;;
13240;SDS011;6687;47.790;7.322;2023-05-20T06:55:13;0.73;;;0.73;;
13240;SDS011;6687;47.790;7.322;2023-05-20T06:57:39;1.38;;;0.95;;
13240;SDS011;6687;47.790;7.322;2023-05-20T07:00:07;0.70;;;0.70;;
13240;SDS011;6687;47.790;7.322;2023-05-20T07:02:34;1.17;;;1.08;;
13240;SDS011;6687;47.790;7.322;2023-05-20T07:05:01;0.75;;;0.75;;
13240;SDS011;6687;47.790;7.322;2023-05-20T07:07:29;0.80;;;0.77;;
13240;SDS011;6687;47.790;7.322;2023-05-20T07:09:56;0.82;;;0.82;;
13240;SDS011;6687;47.790;7.322;2023-05-20T07:12:23;1.63;;;1.15;;
13240;SDS011;6687;47.790;7.322;2023-05-20T07:14:50;0.80;;;0.60;;
13240;SDS011;6687;47.790;7.322;2023-05-20T07:17:16;0.93;;;0.80;;
13240;SDS011;6687;47.790;7.322;2023-05-20T07:19:43;1.25;;;0.80;;
13240;SDS011;6687;47.790;7.322;2023-05-20T07:22:10;0.95;;;0.95;;
13240;SDS011;6687;47.790;7.322;2023-05-20T07:24:38;1.17;;;1.15;;
13240;SDS011;6687;47.790;7.322;2023-05-20T07:27:05;0.88;;;0.88;;
13240;SDS011;6687;47.790;7.322;2023-05-20T07:29:32;1.63;;;0.90;;
13240;SDS011;6687;47.790;7.322;2023-05-20T07:31:59;0.70;;;0.70;;
13240;SDS011;6687;47.790;7.322;2023-05-20T07:34:26;1.63;;;0.88;;
13240;SDS011;6687;47.790;7.322;2023-05-20T07:36:53;1.25;;;0.70;;
13240;SDS011;6687;47.790;7.322;2023-05-20T07:39:21;1.40;;;1.17;;
13240;SDS011;6687;47.790;7.322;2023-05-20T07:41:49;1.30;;;1.20;;
13240;SDS011;6687;47.790;7.322;2023-05-20T07:44:15;1.15;;;1.05;;
13240;SDS011;6687;47.790;7.322;2023-05-20T07:46:45;1.35;;;1.20;;
13240;SDS011;6687;47.790;7.322;2023-05-20T07:49:12;1.38;;;1.20;;
13240;SDS011;6687;47.790;7.322;2023-05-20T07:51:39;0.95;;;0.88;;
13240;SDS011;6687;47.790;7.322;2023-05-20T07:54:06;1.67;;;1.10;;
13240;SDS011;6687;47.790;7.322;2023-05-20T07:56:33;0.82;;;0.82;;
13240;SDS011;6687;47.790;7.322;2023-05-20T07:59:01;0.70;;;0.70;;
13240;SDS011;6687;47.790;7.322;2023-05-20T08:01:28;1.20;;;1.10;;
13240;SDS011;6687;47.790;7.322;2023-05-20T08:03:55;0.90;;;0.90;;
13240;SDS011;6687;47.790;7.322;2023-05-20T08:06:22;1.85;;;1.13;;
13240;SDS011;6687;47.790;7.322;2023-05-20T08:08:49;0.77;;;0.77;;
13240;SDS011;6687;47.790;7.322;2023-05-20T08:11:18;1.52;;;1.15;;
13240;SDS011;6687;47.790;7.322;2023-05-20T08:13:45;0.88;;;0.85;;
13240;SDS011;6687;47.790;7.322;2023-05-20T08:16:13;1.20;;;1.10;;
13240;SDS011;6687;47.790;7.322;2023-05-20T08:18:40;0.80;;;0.80;;
13240;SDS011;6687;47.790;7.322;2023-05-20T08:21:07;1.00;;;0.90;;
13240;SDS011;6687;47.790;7.322;2023-05-20T08:23:34;1.20;;;0.68;;
13240;SDS011;6687;47.790;7.322;2023-05-20T08:26:01;1.02;;;0.85;;
13240;SDS011;6687;47.790;7.322;2023-05-20T08:28:28;1.20;;;1.10;;
13240;SDS011;6687;47.790;7.322;2023-05-20T08:30:55;1.10;;;1.10;;
13240;SDS011;6687;47.790;7.322;2023-05-20T08:33:23;1.33;;;1.15;;
13240;SDS011;6687;47.790;7.322;2023-05-20T08:35:50;1.08;;;1.05;;
13240;SDS011;6687;47.790;7.322;2023-05-20T08:38:16;0.90;;;0.90;;
13240;SDS011;6687;47.790;7.322;2023-05-20T08:40:43;1.17;;;1.05;;
13240;SDS011;6687;47.790;7.322;2023-05-20T08:43:10;1.75;;;1.30;;
13240;SDS011;6687;47.790;7.322;2023-05-20T08:45:37;0.85;;;0.85;;
13240;SDS011;6687;47.790;7.322;2023-05-20T08:48:04;1.08;;;1.02;;
13240;SDS011;6687;47.790;7.322;2023-05-20T08:50:32;1.25;;;1.00;;
13240;SDS011;6687;47.790;7.322;2023-05-20T08:52:59;1.40;;;1.30;;
13240;SDS011;6687;47.790;7.322;2023-05-20T08:55:34;1.02;;;1.02;;
13240;SDS011;6687;47.790;7.322;2023-05-20T08:58:07;1.30;;;1.20;;
13240;SDS011;6687;47.790;7.322;2023-05-20T09:00:34;1.45;;;1.15;;
13240;SDS011;6687;47.790;7.322;2023-05-20T09:03:01;0.98;;;0.95;;
13240;SDS011;6687;47.790;7.322;2023-05-20T09:05:28;1.13;;;1.00;;
13240;SDS011;6687;47.790;7.322;2023-05-20T09:08:04;1.63;;;1.15;;
13240;SDS011;6687;47.790;7.322;2023-05-20T09:10:32;1.67;;;1.20;;
13240;SDS011;6687;47.790;7.322;2023-05-20T09:12:59;1.17;;;1.15;;
13240;SDS011;6687;47.790;7.322;2023-05-20T09:15:26;1.13;;;1.02;;
13240;SDS011;6687;47.790;7.322;2023-05-20T09:17:53;1.73;;;1.30;;
13240;SDS011;6687;47.790;7.322;2023-05-20T09:20:20;1.20;;;1.10;;
13240;SDS011;6687;47.790;7.322;2023-05-20T09:22:49;1.42;;;0.93;;
13240;SDS011;6687;47.790;7.322;2023-05-20T09:25:19;1.40;;;1.08;;
13240;SDS011;6687;47.790;7.322;2023-05-20T09:27:46;1.30;;;1.20;;
13240;SDS011;6687;47.790;7.322;2023-05-20T09:30:12;1.40;;;1.17;;
13240;SDS011;6687;47.790;7.322;2023-05-20T09:32:39;1.30;;;1.20;;
13240;SDS011;6687;47.790;7.322;2023-05-20T09:35:06;1.75;;;1.35;;
13240;SDS011;6687;47.790;7.322;2023-05-20T09:37:33;1.48;;;1.38;;
13240;SDS011;6687;47.790;7.322;2023-05-20T09:40:03;1.77;;;1.33;;
13240;SDS011;6687;47.790;7.322;2023-05-20T09:42:36;1.60;;;1.50;;
13240;SDS011;6687;47.790;7.322;2023-05-20T09:45:05;1.50;;;1.23;;
13240;SDS011;6687;47.790;7.322;2023-05-20T09:47:34;1.92;;;1.38;;
13240;SDS011;6687;47.790;7.322;2023-05-20T09:50:04;1.58;;;1.38;;
13240;SDS011;6687;47.790;7.322;2023-05-20T09:52:32;2.42;;;1.50;;
13240;SDS011;6687;47.790;7.322;2023-05-20T09:55:01;1.35;;;1.25;;
13240;SDS011;6687;47.790;7.322;2023-05-20T09:57:29;2.72;;;1.40;;
13240;SDS011;6687;47.790;7.322;2023-05-20T10:00:00;1.45;;;1.17;;
13240;SDS011;6687;47.790;7.322;2023-05-20T10:02:29;1.05;;;1.00;;
13240;SDS011;6687;47.790;7.322;2023-05-20T10:04:56;2.10;;;1.20;;
13240;SDS011;6687;47.790;7.322;2023-05-20T10:07:31;1.42;;;1.33;;
13240;SDS011;6687;47.790;7.322;2023-05-20T10:10:24;1.70;;;1.30;;
13240;SDS011;6687;47.790;7.322;2023-05-20T10:13:01;1.17;;;1.00;;
13240;SDS011;6687;47.790;7.322;2023-05-20T10:15:46;1.17;;;1.08;;
13240;SDS011;6687;47.790;7.322;2023-05-20T10:18:23;0.90;;;0.90;;
13240;SDS011;6687;47.790;7.322;2023-05-20T10:20:59;0.95;;;0.88;;
13240;SDS011;6687;47.790;7.322;2023-05-20T10:23:26;1.80;;;1.08;;
13240;SDS011;6687;47.790;7.322;2023-05-20T10:25:56;1.45;;;1.25;;
13240;SDS011;6687;47.790;7.322;2023-05-20T10:28:27;1.48;;;1.38;;
13240;SDS011;6687;47.790;7.322;2023-05-20T10:30:57;1.92;;;1.60;;
13240;SDS011;6687;47.790;7.322;2023-05-20T10:33:25;1.33;;;1.17;;
13240;SDS011;6687;47.790;7.322;2023-05-20T10:35:53;1.48;;;1.38;;
13240;SDS011;6687;47.790;7.322;2023-05-20T10:38:23;1.27;;;1.13;;
13240;SDS011;6687;47.790;7.322;2023-05-20T10:40:50;1.20;;;1.10;;
13240;SDS011;6687;47.790;7.322;2023-05-20T10:43:24;1.42;;;1.33;;
13240;SDS011;6687;47.790;7.322;2023-05-20T10:45:53;1.50;;;1.33;;
13240;SDS011;6687;47.790;7.322;2023-05-20T10:48:26;1.65;;;1.17;;
13240;SDS011;6687;47.790;7.322;2023-05-20T10:50:54;1.13;;;1.02;;
13240;SDS011;6687;47.790;7.322;2023-05-20T10:53:22;1.95;;;1.40;;
13240;SDS011;6687;47.790;7.322;2023-05-20T10:55:50;1.10;;;0.95;;
13240;SDS011;6687;47.790;7.322;2023-05-20T10:58:19;1.33;;;1.00;;
13240;SDS011;6687;47.790;7.322;2023-05-20T11:00:47;1.27;;;1.17;;
13240;SDS011;6687;47.790;7.322;2023-05-20T11:03:15;1.48;;;1.15;;
13240;SDS011;6687;47.790;7.322;2023-05-20T11:05:45;1.30;;;1.10;;
13240;SDS011;6687;47.790;7.322;2023-05-20T11:08:12;1.35;;;1.35;;
13240;SDS011;6687;47.790;7.322;2023-05-20T11:10:40;2.60;;;1.30;;
13240;SDS011;6687;47.790;7.322;2023-05-20T11:13:07;1.42;;;1.17;;
13240;SDS011;6687;47.790;7.322;2023-05-20T11:15:38;1.85;;;1.67;;
13240;SDS011;6687;47.790;7.322;2023-05-20T11:18:05;1.40;;;1.25;;
13240;SDS011;6687;47.790;7.322;2023-05-20T11:20:32;1.90;;;1.20;;
13240;SDS011;6687;47.790;7.322;2023-05-20T11:23:00;1.55;;;1.10;;
13240;SDS011;6687;47.790;7.322;2023-05-20T11:25:28;1.48;;;1.30;;
13240;SDS011;6687;47.790;7.322;2023-05-20T11:27:54;2.45;;;1.30;;
13240;SDS011;6687;47.790;7.322;2023-05-20T11:30:21;2.78;;;1.45;;
13240;SDS011;6687;47.790;7.322;2023-05-20T11:32:55;1.38;;;1.15;;
13240;SDS011;6687;47.790;7.322;2023-05-20T11:35:23;1.13;;;1.05;;
13240;SDS011;6687;47.790;7.322;2023-05-20T11:38:01;1.77;;;1.50;;
13240;SDS011;6687;47.790;7.322;2023-05-20T11:40:29;1.42;;;1.33;;
13240;SDS011;6687;47.790;7.322;2023-05-20T11:42:58;1.30;;;1.20;;
13240;SDS011;6687;47.790;7.322;2023-05-20T11:45:26;1.63;;;1.20;;
13240;SDS011;6687;47.790;7.322;2023-05-20T11:48:04;1.10;;;1.00;;
13240;SDS011;6687;47.790;7.322;2023-05-20T11:50:33;1.25;;;1.10;;
13240;SDS011;6687;47.790;7.322;2023-05-20T11:53:05;1.17;;;0.95;;
13240;SDS011;6687;47.790;7.322;2023-05-20T11:55:33;1.25;;;1.25;;
13240;SDS011;6687;47.790;7.322;2023-05-20T11:58:00;1.30;;;1.17;;
13240;SDS011;6687;47.790;7.322;2023-05-20T12:00:28;1.13;;;1.02;;
13240;SDS011;6687;47.790;7.322;2023-05-20T12:02:55;1.15;;;1.15;;
13240;SDS011;6687;47.790;7.322;2023-05-20T12:05:22;2.10;;;1.25;;
13240;SDS011;6687;47.790;7.322;2023-05-20T12:07:48;0.85;;;0.85;;
13240;SDS011;6687;47.790;7.322;2023-05-20T12:10:16;1.35;;;1.25;;
13240;SDS011;6687;47.790;7.322;2023-05-20T12:12:43;1.50;;;1.40;;
13240;SDS011;6687;47.790;7.322;2023-05-20T12:15:10;1.45;;;1.27;;
13240;SDS011;6687;47.790;7.322;2023-05-20T12:17:44;1.45;;;1.23;;
13240;SDS011;6687;47.790;7.322;2023-05-20T12:20:12;0.95;;;0.95;;
13240;SDS011;6687;47.790;7.322;2023-05-20T12:22:40;1.40;;;1.05;;
13240;SDS011;6687;47.790;7.322;2023-05-20T12:25:07;1.48;;;1.38;;
13240;SDS011;6687;47.790;7.322;2023-05-20T12:27:37;2.25;;;1.27;;
13240;SDS011;6687;47.790;7.322;2023-05-20T12:30:05;1.50;;;1.40;;
13240;SDS011;6687;47.790;7.322;2023-05-20T12:32:33;1.48;;;1.38;;
13240;SDS011;6687;47.790;7.322;2023-05-20T12:35:00;2.20;;;1.58;;
13240;SDS011;6687;47.790;7.322;2023-05-20T12:37:27;1.52;;;1.42;;
13240;SDS011;6687;47.790;7.322;2023-05-20T12:39:54;1.35;;;1.25;;
13240;SDS011;6687;47.790;7.322;2023-05-20T12:42:21;1.45;;;1.35;;
13240;SDS011;6687;47.790;7.322;2023-05-20T12:44:49;1.50;;;1.40;;
13240;SDS011;6687;47.790;7.322;2023-05-20T12:47:15;1.27;;;1.13;;
13240;SDS011;6687;47.790;7.322;2023-05-20T12:49:42;1.30;;;1.17;;
13240;SDS011;6687;47.790;7.322;2023-05-20T12:52:09;1.30;;;1.20;;
13240;SDS011;6687;47.790;7.322;2023-05-20T12:54:35;1.33;;;1.23;;
13240;SDS011;6687;47.790;7.322;2023-05-20T12:57:02;1.30;;;1.20;;
13240;SDS011;6687;47.790;7.322;2023-05-20T12:59:29;1.58;;;1.48;;
13240;SDS011;6687;47.790;7.322;2023-05-20T13:01:58;1.38;;;1.27;;
13240;SDS011;6687;47.790;7.322;2023-05-20T13:04:25;0.93;;;0.93;;
13240;SDS011;6687;47.790;7.322;2023-05-20T13:06:51;1.13;;;1.13;;
13240;SDS011;6687;47.790;7.322;2023-05-20T13:09:18;1.30;;;1.20;;
13240;SDS011;6687;47.790;7.322;2023-05-20T13:11:45;1.50;;;1.40;;
13240;SDS011;6687;47.790;7.322;2023-05-20T13:14:12;2.60;;;1.33;;
13240;SDS011;6687;47.790;7.322;2023-05-20T13:16:38;1.13;;;1.13;;
13240;SDS011;6687;47.790;7.322;2023-05-20T13:19:07;1.40;;;1.23;;
13240;SDS011;6687;47.790;7.322;2023-05-20T13:21:33;1.58;;;1.33;;
13240;SDS011;6687;47.790;7.322;2023-05-20T13:24:00;1.90;;;1.40;;
13240;SDS011;6687;47.790;7.322;2023-05-20T13:26:28;2.33;;;1.40;;
13240;SDS011;6687;47.790;7.322;2023-05-20T13:28:55;1.88;;;1.42;;
13240;SDS011;6687;47.790;7.322;2023-05-20T13:31:22;1.20;;;1.08;;
13240;SDS011;6687;47.790;7.322;2023-05-20T13:33:49;2.05;;;1.58;;
13240;SDS011;6687;47.790;7.322;2023-05-20T13:36:18;1.60;;;1.15;;
13240;SDS011;6687;47.790;7.322;2023-05-20T13:38:45;1.52;;;1.40;;
13240;SDS011;6687;47.790;7.322;2023-05-20T13:41:11;1.88;;;1.45;;
13240;SDS011;6687;47.790;7.322;2023-05-20T13:43:38;1.30;;;1.20;;
13240;SDS011;6687;47.790;7.322;2023-05-20T13:46:06;2.35;;;1.23;;
13240;SDS011;6687;47.790;7.322;2023-05-20T13:48:33;1.50;;;1.40;;
13240;SDS011;6687;47.790;7.322;2023-05-20T13:50:59;1.90;;;1.42;;
13240;SDS011;6687;47.790;7.322;2023-05-20T13:53:28;1.88;;;1.30;;
13240;SDS011;6687;47.790;7.322;2023-05-20T13:55:54;2.88;;;1.75;;
13240;SDS011;6687;47.790;7.322;2023-05-20T13:58:21;1.92;;;1.65;;
13240;SDS011;6687;47.790;7.322;2023-05-20T14:00:48;1.30;;;1.25;;
13240;SDS011;6687;47.790;7.322;2023-05-20T14:03:15;1.42;;;1.33;;
13240;SDS011;6687;47.790;7.322;2023-05-20T14:05:41;1.30;;;1.20;;
13240;SDS011;6687;47.790;7.322;2023-05-20T14:08:08;1.70;;;1.60;;
13240;SDS011;6687;47.790;7.322;2023-05-20T14:10:36;1.40;;;1.30;;
13240;SDS011;6687;47.790;7.322;2023-05-20T14:13:03;1.90;;;1.60;;
13240;SDS011;6687;47.790;7.322;2023-05-20T14:15:30;1.50;;;1.40;;
13240;SDS011;6687;47.790;7.322;2023-05-20T14:17:57;1.45;;;1.35;;
13240;SDS011;6687;47.790;7.322;2023-05-20T14:20:23;1.35;;;1.25;;
13240;SDS011;6687;47.790;7.322;2023-05-20T14:22:51;1.35;;;1.25;;
13240;SDS011;6687;47.790;7.322;2023-05-20T14:25:18;2.55;;;1.50;;
13240;SDS011;6687;47.790;7.322;2023-05-20T14:27:46;1.48;;;1.38;;
13240;SDS011;6687;47.790;7.322;2023-05-20T14:30:13;1.60;;;1.50;;
13240;SDS011;6687;47.790;7.322;2023-05-20T14:32:40;1.48;;;1.38;;
13240;SDS011;6687;47.790;7.322;2023-05-20T14:35:07;1.80;;;1.30;;
13240;SDS011;6687;47.790;7.322;2023-05-20T14:37:34;1.40;;;1.30;;
13240;SDS011;6687;47.790;7.322;2023-05-20T14:40:03;1.63;;;1.40;;
13240;SDS011;6687;47.790;7.322;2023-05-20T14:42:31;1.90;;;1.67;;
13240;SDS011;6687;47.790;7.322;2023-05-20T14:44:59;1.80;;;1.70;;
13240;SDS011;6687;47.790;7.322;2023-05-20T14:47:26;1.50;;;1.40;;
13240;SDS011;6687;47.790;7.322;2023-05-20T14:49:53;1.73;;;1.63;;
13240;SDS011;6687;47.790;7.322;2023-05-20T14:52:19;1.23;;;1.13;;
13240;SDS011;6687;47.790;7.322;2023-05-20T14:54:46;1.75;;;1.65;;
13240;SDS011;6687;47.790;7.322;2023-05-20T14:57:13;1.55;;;1.38;;
13240;SDS011;6687;47.790;7.322;2023-05-20T14:59:40;1.83;;;1.73;;
13240;SDS011;6687;47.790;7.322;2023-05-20T15:02:09;1.50;;;1.40;;
13240;SDS011;6687;47.790;7.322;2023-05-20T15:04:35;2.35;;;1.60;;
13240;SDS011;6687;47.790;7.322;2023-05-20T15:07:04;1.85;;;1.75;;
13240;SDS011;6687;47.790;7.322;2023-05-20T15:09:31;1.75;;;1.65;;
13240;SDS011;6687;47.790;7.322;2023-05-20T15:11:59;2.67;;;1.60;;
13240;SDS011;6687;47.790;7.322;2023-05-20T15:14:25;1.98;;;1.75;;
13240;SDS011;6687;47.790;7.322;2023-05-20T15:16:52;2.05;;;1.52;;
13240;SDS011;6687;47.790;7.322;2023-05-20T15:19:20;1.85;;;1.25;;
13240;SDS011;6687;47.790;7.322;2023-05-20T15:21:47;2.35;;;1.77;;
13240;SDS011;6687;47.790;7.322;2023-05-20T15:24:15;1.40;;;1.30;;
13240;SDS011;6687;47.790;7.322;2023-05-20T15:26:42;1.98;;;1.65;;
13240;SDS011;6687;47.790;7.322;2023-05-20T15:29:09;1.27;;;1.15;;
13240;SDS011;6687;47.790;7.322;2023-05-20T15:31:36;1.50;;;1.40;;
13240;SDS011;6687;47.790;7.322;2023-05-20T15:34:03;1.50;;;1.40;;
13240;SDS011;6687;47.790;7.322;2023-05-20T15:36:31;1.52;;;1.42;;
13240;SDS011;6687;47.790;7.322;2023-05-20T15:38:57;1.75;;;1.33;;
13240;SDS011;6687;47.790;7.322;2023-05-20T15:41:24;1.63;;;1.42;;
13240;SDS011;6687;47.790;7.322;2023-05-20T15:43:51;1.70;;;1.60;;
13240;SDS011;6687;47.790;7.322;2023-05-20T15:46:18;1.33;;;1.23;;
13240;SDS011;6687;47.790;7.322;2023-05-20T15:48:44;1.58;;;1.42;;
13240;SDS011;6687;47.790;7.322;2023-05-20T15:51:11;2.38;;;1.40;;
13240;SDS011;6687;47.790;7.322;2023-05-20T15:53:40;1.38;;;1.27;;
13240;SDS011;6687;47.790;7.322;2023-05-20T15:56:07;2.22;;;1.50;;
13240;SDS011;6687;47.790;7.322;2023-05-20T15:58:36;1.60;;;1.50;;
13240;SDS011;6687;47.790;7.322;2023-05-20T16:01:03;1.45;;;1.35;;
13240;SDS011;6687;47.790;7.322;2023-05-20T16:03:30;1.50;;;1.40;;
13240;SDS011;6687;47.790;7.322;2023-05-20T16:05:57;2.53;;;1.50;;
13240;SDS011;6687;47.790;7.322;2023-05-20T16:08:24;1.73;;;1.63;;
13240;SDS011;6687;47.790;7.322;2023-05-20T16:10:54;1.30;;;1.17;;
13240;SDS011;6687;47.790;7.322;2023-05-20T16:13:21;1.50;;;1.40;;
13240;SDS011;6687;47.790;7.322;2023-05-20T16:15:48;1.75;;;1.65;;
13240;SDS011;6687;47.790;7.322;2023-05-20T16:18:15;1.67;;;1.58;;
13240;SDS011;6687;47.790;7.322;2023-05-20T16:20:41;1.85;;;1.40;;
13240;SDS011;6687;47.790;7.322;2023-05-20T16:23:08;1.55;;;1.30;;
13240;SDS011;6687;47.790;7.322;2023-05-20T16:25:35;1.30;;;1.20;;
13240;SDS011;6687;47.790;7.322;2023-05-20T16:28:03;1.70;;;1.60;;
13240;SDS011;6687;47.790;7.322;2023-05-20T16:30:30;1.48;;;1.38;;
13240;SDS011;6687;47.790;7.322;2023-05-20T16:32:56;1.38;;;1.27;;
13240;SDS011;6687;47.790;7.322;2023-05-20T16:35:23;1.40;;;1.30;;
13240;SDS011;6687;47.790;7.322;2023-05-20T16:37:50;1.38;;;1.27;;
13240;SDS011;6687;47.790;7.322;2023-05-20T16:40:16;1.80;;;1.60;;
13240;SDS011;6687;47.790;7.322;2023-05-20T16:42:43;1.33;;;1.23;;
13240;SDS011;6687;47.790;7.322;2023-05-20T16:45:11;1.58;;;1.48;;
13240;SDS011;6687;47.790;7.322;2023-05-20T16:47:38;1.92;;;1.35;;
13240;SDS011;6687;47.790;7.322;2023-05-20T16:50:05;1.48;;;1.35;;
13240;SDS011;6687;47.790;7.322;2023-05-20T16:52:33;1.48;;;1.38;;
13240;SDS011;6687;47.790;7.322;2023-05-20T16:55:01;1.77;;;1.42;;
13240;SDS011;6687;47.790;7.322;2023-05-20T16:57:28;1.38;;;1.27;;
13240;SDS011;6687;47.790;7.322;2023-05-20T16:59:56;1.35;;;1.27;;
13240;SDS011;6687;47.790;7.322;2023-05-20T17:02:24;1.67;;;1.58;;
13240;SDS011;6687;47.790;7.322;2023-05-20T17:04:51;1.52;;;1.42;;
13240;SDS011;6687;47.790;7.322;2023-05-20T17:07:18;1.65;;;1.27;;
13240;SDS011;6687;47.790;7.322;2023-05-20T17:09:44;1.52;;;1.42;;
13240;SDS011;6687;47.790;7.322;2023-05-20T17:12:12;1.20;;;1.13;;
13240;SDS011;6687;47.790;7.322;2023-05-20T17:14:39;1.75;;;1.17;;
13240;SDS011;6687;47.790;7.322;2023-05-20T17:17:05;1.38;;;1.27;;
13240;SDS011;6687;47.790;7.322;2023-05-20T17:19:34;2.13;;;1.60;;
13240;SDS011;6687;47.790;7.322;2023-05-20T17:22:01;1.55;;;1.40;;
13240;SDS011;6687;47.790;7.322;2023-05-20T17:24:28;2.90;;;1.58;;
13240;SDS011;6687;47.790;7.322;2023-05-20T17:26:55;1.67;;;1.38;;
13240;SDS011;6687;47.790;7.322;2023-05-20T17:29:21;1.48;;;1.38;;
13240;SDS011;6687;47.790;7.322;2023-05-20T17:31:48;1.48;;;1.38;;
13240;SDS011;6687;47.790;7.322;2023-05-20T17:34:15;1.20;;;1.10;;
13240;SDS011;6687;47.790;7.322;2023-05-20T17:36:43;1.60;;;1.50;;
13240;SDS011;6687;47.790;7.322;2023-05-20T17:39:10;2.40;;;1.58;;
13240;SDS011;6687;47.790;7.322;2023-05-20T17:41:37;2.08;;;1.85;;
13240;SDS011;6687;47.790;7.322;2023-05-20T17:44:04;2.92;;;2.25;;
13240;SDS011;6687;47.790;7.322;2023-05-20T17:46:31;2.25;;;2.03;;
13240;SDS011;6687;47.790;7.322;2023-05-20T17:48:58;2.55;;;2.28;;
13240;SDS011;6687;47.790;7.322;2023-05-20T17:51:25;1.90;;;1.65;;
13240;SDS011;6687;47.790;7.322;2023-05-20T17:53:53;2.25;;;1.92;;
13240;SDS011;6687;47.790;7.322;2023-05-20T17:56:20;1.77;;;1.50;;
13240;SDS011;6687;47.790;7.322;2023-05-20T17:58:47;1.65;;;1.45;;
13240;SDS011;6687;47.790;7.322;2023-05-20T18:01:14;2.17;;;2.00;;
13240;SDS011;6687;47.790;7.322;2023-05-20T18:03:41;1.48;;;1.38;;
13240;SDS011;6687;47.790;7.322;2023-05-20T18:06:08;2.00;;;1.80;;
13240;SDS011;6687;47.790;7.322;2023-05-20T18:08:34;1.80;;;1.52;;
13240;SDS011;6687;47.790;7.322;2023-05-20T18:11:03;1.90;;;1.70;;
13240;SDS011;6687;47.790;7.322;2023-05-20T18:13:29;1.83;;;1.73;;
13240;SDS011;6687;47.790;7.322;2023-05-20T18:15:56;2.03;;;1.70;;
13240;SDS011;6687;47.790;7.322;2023-05-20T18:18:23;1.60;;;1.50;;
13240;SDS011;6687;47.790;7.322;2023-05-20T18:20:50;2.45;;;1.88;;
13240;SDS011;6687;47.790;7.322;2023-05-20T18:23:16;2.13;;;1.92;;
13240;SDS011;6687;47.790;7.322;2023-05-20T18:25:43;3.72;;;1.73;;
13240;SDS011;6687;47.790;7.322;2023-05-20T18:28:11;2.20;;;2.00;;
13240;SDS011;6687;47.790;7.322;2023-05-20T18:30:38;1.75;;;1.58;;
13240;SDS011;6687;47.790;7.322;2023-05-20T18:33:05;1.80;;;1.70;;
13240;SDS011;6687;47.790;7.322;2023-05-20T18:35:31;1.88;;;1.70;;
13240;SDS011;6687;47.790;7.322;2023-05-20T18:37:58;2.30;;;2.00;;
13240;SDS011;6687;47.790;7.322;2023-05-20T18:40:25;2.05;;;1.85;;
13240;SDS011;6687;47.790;7.322;2023-05-20T18:42:52;1.95;;;1.83;;
13240;SDS011;6687;47.790;7.322;2023-05-20T18:45:20;2.70;;;1.67;;
13240;SDS011;6687;47.790;7.322;2023-05-20T18:47:48;2.20;;;1.70;;
13240;SDS011;6687;47.790;7.322;2023-05-20T18:50:17;1.80;;;1.70;;
13240;SDS011;6687;47.790;7.322;2023-05-20T18:52:44;2.10;;;1.90;;
13240;SDS011;6687;47.790;7.322;2023-05-20T18:55:11;2.78;;;2.60;;
13240;SDS011;6687;47.790;7.322;2023-05-20T18:57:37;2.13;;;1.92;;
13240;SDS011;6687;47.790;7.322;2023-05-20T19:00:05;3.53;;;2.13;;
13240;SDS011;6687;47.790;7.322;2023-05-20T19:02:37;1.80;;;1.70;;
13240;SDS011;6687;47.790;7.322;2023-05-20T19:05:04;1.80;;;1.70;;
13240;SDS011;6687;47.790;7.322;2023-05-20T19:07:32;2.78;;;1.85;;
13240;SDS011;6687;47.790;7.322;2023-05-20T19:09:59;2.53;;;1.95;;
13240;SDS011;6687;47.790;7.322;2023-05-20T19:12:26;3.83;;;2.20;;
13240;SDS011;6687;47.790;7.322;2023-05-20T19:14:52;2.35;;;2.15;;
13240;SDS011;6687;47.790;7.322;2023-05-20T19:17:19;2.85;;;2.00;;
13240;SDS011;6687;47.790;7.322;2023-05-20T19:19:47;1.70;;;1.60;;
13240;SDS011;6687;47.790;7.322;2023-05-20T19:22:14;2.05;;;1.65;;
13240;SDS011;6687;47.790;7.322;2023-05-20T19:24:41;2.40;;;1.58;;
13240;SDS011;6687;47.790;7.322;2023-05-20T19:27:08;2.10;;;1.90;;
13240;SDS011;6687;47.790;7.322;2023-05-20T19:29:34;2.28;;;1.80;;
13240;SDS011;6687;47.790;7.322;2023-05-20T19:32:01;1.95;;;1.85;;
13240;SDS011;6687;47.790;7.322;2023-05-20T19:34:28;2.47;;;2.20;;
13240;SDS011;6687;47.790;7.322;2023-05-20T19:36:56;2.15;;;2.00;;
13240;SDS011;6687;47.790;7.322;2023-05-20T19:39:23;2.10;;;1.63;;
13240;SDS011;6687;47.790;7.322;2023-05-20T19:41:50;3.58;;;1.70;;
13240;SDS011;6687;47.790;7.322;2023-05-20T19:44:17;2.53;;;1.92;;
13240;SDS011;6687;47.790;7.322;2023-05-20T19:46:44;2.40;;;2.03;;
13240;SDS011;6687;47.790;7.322;2023-05-20T19:49:12;1.83;;;1.73;;
13240;SDS011;6687;47.790;7.322;2023-05-20T19:51:39;2.38;;;2.17;;
13240;SDS011;6687;47.790;7.322;2023-05-20T19:54:07;2.55;;;2.35;;
13240;SDS011;6687;47.790;7.322;2023-05-20T19:56:34;1.90;;;1.75;;
13240;SDS011;6687;47.790;7.322;2023-05-20T19:59:00;2.40;;;1.80;;
13240;SDS011;6687;47.790;7.322;2023-05-20T20:01:28;1.90;;;1.80;;
13240;SDS011;6687;47.790;7.322;2023-05-20T20:03:54;2.58;;;2.15;;
13240;SDS011;6687;47.790;7.322;2023-05-20T20:06:21;2.03;;;1.80;;
13240;SDS011;6687;47.790;7.322;2023-05-20T20:08:48;2.10;;;1.90;;
13240;SDS011;6687;47.790;7.322;2023-05-20T20:11:16;1.88;;;1.75;;
13240;SDS011;6687;47.790;7.322;2023-05-20T20:13:43;1.83;;;1.65;;
13240;SDS011;6687;47.790;7.322;2023-05-20T20:16:09;1.40;;;1.30;;
13240;SDS011;6687;47.790;7.322;2023-05-20T20:18:36;1.80;;;1.65;;
13240;SDS011;6687;47.790;7.322;2023-05-20T20:21:03;1.60;;;1.50;;
13240;SDS011;6687;47.790;7.322;2023-05-20T20:23:30;1.88;;;1.52;;
13240;SDS011;6687;47.790;7.322;2023-05-20T20:26:00;2.38;;;1.70;;